Time;durP1;ratioP1;P1;durP2;ratioP2;P2;SDS_P1;SDS_P2;PMS_P1;PMS_P2;Temp;Humidity;BMP_temperature;BMP_pressure;BME280_temperature;BME280_humidity;BME280_pressure;Samples;Min_cycle;Max_cycle;Signal;HPM_P1;HPM_P2
2023/01/18 00:01:18;;;;;;;15.70;6.30;;;;;;;-0.61;100.00;97679.84;109453;1254;72890;-71
2023/01/18 00:04:06;;;;;;;12.20;4.80;;;;;;;-0.62;100.00;97680.09;109462;1253;68880;-71
2023/01/18 00:06:56;;;;;;;13.40;6.00;;;;;;;-0.64;100.00;97676.53;109408;1254;72785;-71
2023/01/18 00:09:43;;;;;;;13.70;5.70;;;;;;;-0.65;100.00;97670.51;109335;1254;58480;-71
2023/01/18 00:12:32;;;;;;;14.70;6.20;;;;;;;-0.66;100.00;97670.27;109446;1254;59831;-72
2023/01/18 00:15:20;;;;;;;12.10;5.00;;;;;;;-0.68;100.00;97666.69;109355;1253;72874;-71
2023/01/18 00:18:08;;;;;;;10.40;4.40;;;;;;;-0.69;100.00;97665.20;109450;1254;69128;-72
2023/01/18 00:21:07;;;;;;;13.60;5.30;;;;;;;-0.71;100.00;97661.36;109432;1253;72443;-71
2023/01/18 00:23:55;;;;;;;14.00;5.80;;;;;;;-0.74;100.00;97656.36;109377;1254;57384;-71
2023/01/18 00:26:43;;;;;;;13.30;5.40;;;;;;;-0.78;100.00;97656.42;109404;1254;58019;-73
2023/01/18 00:29:31;;;;;;;13.90;5.80;;;;;;;-0.82;100.00;97652.71;109446;1253;71488;-72
2023/01/18 00:32:19;;;;;;;12.30;5.30;;;;;;;-0.84;100.00;97650.74;109480;1254;67612;-69
2023/01/18 00:35:08;;;;;;;14.10;5.30;;;;;;;-0.85;100.00;97645.98;109421;1254;73337;-69
2023/01/18 00:37:56;;;;;;;11.10;5.40;;;;;;;-0.87;100.00;97648.67;109424;1254;59530;-70
2023/01/18 00:40:44;;;;;;;13.10;5.80;;;;;;;-0.91;100.00;97652.07;109430;1254;61055;-68
2023/01/18 00:43:38;;;;;;;11.90;4.70;;;;;;;-0.94;100.00;97665.90;108668;1253;1002565;-69
2023/01/18 00:46:26;;;;;;;10.70;4.90;;;;;;;-0.97;100.00;97673.27;109595;1251;66420;-74
2023/01/18 00:49:14;;;;;;;12.30;5.10;;;;;;;-1.00;100.00;97685.15;109599;1251;72906;-69
2023/01/18 00:52:03;;;;;;;13.80;5.40;;;;;;;-1.01;100.00;97690.75;109624;1251;57303;-69
2023/01/18 00:54:51;;;;;;;14.50;6.20;;;;;;;-1.02;100.00;97689.89;108881;1251;1002680;-70
2023/01/18 00:57:39;;;;;;;12.90;5.80;;;;;;;-1.05;100.00;97681.63;109659;1251;72712;-70
2023/01/18 01:00:26;;;;;;;14.90;5.70;;;;;;;-1.08;100.00;97676.40;109638;1251;65833;-69
2023/01/18 01:03:15;;;;;;;15.00;6.50;;;;;;;-1.12;100.00;97670.75;109640;1251;74252;-69
2023/01/18 01:09:13;;;;;;;16.70;6.60;;;;;;;-1.20;100.00;97665.55;109679;1251;61335;-69
2023/01/18 01:27:34;;;;;;;11.80;5.20;;;;;;;-1.11;100.00;97727.41;109626;1251;70475;-69
2023/01/18 01:30:23;;;;;;;14.10;5.20;;;;;;;-1.07;100.00;97735.14;109636;1251;68674;-69
2023/01/18 01:33:11;;;;;;;9.30;4.00;;;;;;;-1.03;100.00;97732.43;109654;1251;71221;-69
2023/01/18 01:36:06;;;;;;;13.00;5.30;;;;;;;-0.98;100.00;97734.25;109638;1251;57299;-70
2023/01/18 01:38:54;;;;;;;11.30;4.80;;;;;;;-0.97;100.00;97726.72;109617;1251;58841;-69
2023/01/18 01:41:42;;;;;;;12.20;5.40;;;;;;;-0.95;100.00;97731.45;109605;1251;71786;-69
2023/01/18 01:44:33;;;;;;;11.70;4.30;;;;;;;-0.94;100.00;97730.84;109636;1251;68696;-70
2023/01/18 01:47:34;;;;;;;13.20;5.90;;;;;;;-0.95;100.00;97730.36;109562;1252;71161;-68
2023/01/18 01:50:38;;;;;;;12.30;5.90;;;;;;;-0.93;100.00;97732.18;109535;1251;58052;-68
2023/01/18 01:53:26;;;;;;;10.60;5.40;;;;;;;-0.90;100.00;97735.97;109650;1252;59116;-68
2023/01/18 01:56:14;;;;;;;10.60;4.80;;;;;;;-0.91;100.00;97735.84;109587;1252;71491;-69
2023/01/18 01:59:04;;;;;;;10.10;4.40;;;;;;;-0.91;100.00;97743.31;109585;1252;68040;-68
2023/01/18 02:01:52;;;;;;;12.40;5.70;;;;;;;-0.93;100.00;97744.88;109539;1251;72582;-70
2023/01/18 02:04:43;;;;;;;13.00;6.50;;;;;;;-0.95;100.00;97743.76;109560;1251;59793;-68
2023/01/18 02:07:31;;;;;;;14.60;6.20;;;;;;;-0.95;100.00;97744.78;109578;1252;60285;-69
2023/01/18 02:10:19;;;;;;;14.30;6.50;;;;;;;-0.92;100.00;97742.70;109486;1253;71657;-69
2023/01/18 02:13:09;;;;;;;15.90;6.40;;;;;;;-0.87;100.00;97748.44;109611;1252;67882;-68
2023/01/18 02:16:01;;;;;;;15.10;7.20;;;;;;;-0.82;100.00;97738.55;109584;1252;72818;-70
2023/01/18 02:19:27;;;;;;;12.10;6.10;;;;;;;-0.78;100.00;97736.54;109497;1252;59005;-68
2023/01/18 02:23:06;;;;;;;9.80;4.20;;;;;;;-0.72;100.00;97738.55;109618;1251;60259;-67
2023/01/18 02:26:48;;;;;;;11.00;5.20;;;;;;;-0.69;100.00;97744.99;109620;1251;73126;-69
2023/01/18 02:30:00;;;;;;;15.00;6.80;;;;;;;-0.72;100.00;97751.42;109614;1252;66616;-68
2023/01/18 02:33:05;;;;;;;14.70;6.90;;;;;;;-0.71;100.00;97752.23;109477;1251;73423;-71
2023/01/18 02:35:56;;;;;;;12.90;5.20;;;;;;;-0.71;100.00;97753.48;109602;1253;57308;-70
2023/01/18 02:38:48;;;;;;;11.80;5.60;;;;;;;-0.74;100.00;97756.13;109571;1252;60401;-69
2023/01/18 02:47:58;;;;;;;11.80;6.00;;;;;;;-0.82;100.00;97757.35;109549;1252;71108;-70
2023/01/18 02:50:46;;;;;;;13.00;6.10;;;;;;;-0.83;100.00;97753.23;109598;1253;57462;-69
2023/01/18 02:53:41;;;;;;;11.10;4.80;;;;;;;-0.83;100.00;97747.70;109595;1252;58264;-73
2023/01/18 02:56:43;;;;;;;15.40;6.70;;;;;;;-0.84;100.00;97751.05;109384;1252;164443;-69
2023/01/18 02:59:41;;;;;;;14.00;6.40;;;;;;;-0.85;100.00;97750.42;109647;1251;68745;-70
2023/01/18 03:02:29;;;;;;;15.20;7.20;;;;;;;-0.85;100.00;97755.33;109467;1253;72603;-70
2023/01/18 03:05:19;;;;;;;13.50;6.60;;;;;;;-0.88;100.00;97756.38;109571;1252;57269;-69
2023/01/18 03:08:20;;;;;;;13.70;5.60;;;;;;;-0.92;100.00;97759.08;109591;1251;59880;-69
2023/01/18 03:11:31;;;;;;;12.90;5.50;;;;;;;-0.97;100.00;97762.69;109570;1252;71576;-69
2023/01/18 03:15:01;;;;;;;13.50;6.00;;;;;;;-1.07;100.00;97768.59;109584;1252;68600;-71
2023/01/18 03:17:53;;;;;;;13.60;5.90;;;;;;;-1.15;100.00;97772.12;108657;1252;1002435;-69
2023/01/18 03:20:52;;;;;;;18.30;7.10;;;;;;;-1.16;100.00;97778.06;109564;1252;58743;-69
2023/01/18 03:23:41;;;;;;;15.50;6.80;;;;;;;-1.16;100.00;97786.95;109499;1252;61019;-68
2023/01/18 03:26:32;;;;;;;14.20;6.10;;;;;;;-1.16;100.00;97784.52;109597;1251;71909;-69
2023/01/18 03:35:40;;;;;;;16.60;6.80;;;;;;;-1.16;100.00;97784.48;109547;1252;58620;-70
2023/01/18 03:38:30;;;;;;;14.10;6.60;;;;;;;-1.15;100.00;97778.88;109481;1255;60095;-70
2023/01/18 03:41:20;;;;;;;14.10;6.50;;;;;;;-1.20;100.00;97776.39;108748;1253;1002954;-70
2023/01/18 03:44:26;;;;;;;12.90;5.60;;;;;;;-1.24;100.00;97780.89;109637;1251;67737;-71
2023/01/18 03:47:14;;;;;;;14.80;6.30;;;;;;;-1.28;100.00;97779.93;109513;1253;73885;-70
2023/01/18 03:50:03;;;;;;;11.70;4.90;;;;;;;-1.35;100.00;97767.64;109558;1253;58420;-71
2023/01/18 03:52:57;;;;;;;15.70;6.50;;;;;;;-1.34;100.00;97779.97;109593;1253;59957;-70
2023/01/18 03:55:55;;;;;;;11.90;5.40;;;;;;;-1.35;100.00;97777.38;109439;1253;73759;-70
2023/01/18 03:58:44;;;;;;;12.90;6.00;;;;;;;-1.34;100.00;97779.97;109461;1251;67802;-72
2023/01/18 04:01:32;;;;;;;14.50;6.20;;;;;;;-1.35;100.00;97778.50;109587;1252;73342;-71
2023/01/18 04:04:21;;;;;;;15.20;7.50;;;;;;;-1.34;100.00;97775.96;109615;1252;58652;-73
2023/01/18 04:07:09;;;;;;;16.10;7.40;;;;;;;-1.36;100.00;97769.50;109603;1251;59952;-71
2023/01/18 04:09:58;;;;;;;18.40;7.70;;;;;;;-1.30;100.00;97775.70;109614;1252;71381;-71
2023/01/18 04:12:46;;;;;;;15.40;7.00;;;;;;;-1.29;100.00;97761.48;109609;1253;67829;-71
2023/01/18 04:15:34;;;;;;;15.80;7.30;;;;;;;-1.25;100.00;97755.70;109539;1252;73944;-68
2023/01/18 04:18:22;;;;;;;16.60;7.60;;;;;;;-1.22;100.00;97752.66;109570;1253;58454;-68
2023/01/18 04:21:10;;;;;;;17.40;7.20;;;;;;;-1.19;100.00;97749.73;109556;1252;61014;-70
2023/01/18 04:23:58;;;;;;;16.50;7.70;;;;;;;-1.17;100.00;97745.59;109605;1252;71801;-70
2023/01/18 04:26:46;;;;;;;17.50;7.90;;;;;;;-1.16;100.00;97744.83;108860;1251;1002411;-68
2023/01/18 04:29:34;;;;;;;16.10;6.50;;;;;;;-1.18;100.00;97746.33;109549;1251;71901;-69
2023/01/18 04:32:22;;;;;;;13.50;5.60;;;;;;;-1.24;100.00;97748.46;109603;1253;57267;-68
2023/01/18 04:35:11;;;;;;;16.00;7.60;;;;;;;-1.27;100.00;97743.13;109616;1253;58767;-69
2023/01/18 04:37:59;;;;;;;17.40;7.80;;;;;;;-1.28;100.00;97742.34;108785;1252;1002417;-69
2023/01/18 04:40:47;;;;;;;18.40;8.70;;;;;;;-1.29;100.00;97742.23;109611;1252;66489;-69
2023/01/18 04:43:35;;;;;;;15.40;6.90;;;;;;;-1.33;100.00;97739.48;109569;1253;72320;-68
2023/01/18 04:46:23;;;;;;;17.70;7.70;;;;;;;-1.32;100.00;97744.36;109553;1251;59525;-70
2023/01/18 04:49:15;;;;;;;16.30;6.60;;;;;;;-1.33;100.00;97744.55;109612;1251;61405;-69
2023/01/18 04:52:05;;;;;;;12.60;5.90;;;;;;;-1.33;100.00;97744.95;108825;1252;1002288;-71
2023/01/18 04:54:53;;;;;;;14.60;6.20;;;;;;;-1.34;100.00;97750.19;109636;1252;67752;-71
2023/01/18 04:57:42;;;;;;;13.50;6.00;;;;;;;-1.37;100.00;97767.58;109546;1252;71651;-70
2023/01/18 05:00:31;;;;;;;18.90;9.00;;;;;;;-1.39;100.00;97778.55;109584;1252;57316;-70
2023/01/18 05:03:18;;;;;;;17.10;7.80;;;;;;;-1.44;100.00;97783.23;109629;1252;61513;-70
2023/01/18 05:06:11;;;;;;;17.80;7.80;;;;;;;-1.52;100.00;97784.95;109644;1252;72770;-70
2023/01/18 05:08:58;;;;;;;19.50;8.50;;;;;;;-1.61;100.00;97791.28;109593;1251;66532;-72
2023/01/18 05:11:46;;;;;;;22.20;10.40;;;;;;;-1.70;100.00;97787.16;109611;1251;72380;-70
2023/01/18 05:14:34;;;;;;;22.70;10.40;;;;;;;-1.69;100.00;97792.80;109621;1252;58487;-68
2023/01/18 05:17:26;;;;;;;24.00;10.50;;;;;;;-1.69;100.00;97794.34;109557;1251;58905;-69
2023/01/18 05:20:14;;;;;;;21.60;9.80;;;;;;;-1.66;100.00;97793.50;109612;1252;71529;-69
2023/01/18 05:23:09;;;;;;;21.80;10.30;;;;;;;-1.63;100.00;97790.34;109612;1252;67917;-69
2023/01/18 05:25:58;;;;;;;26.90;12.00;;;;;;;-1.59;100.00;97787.06;109626;1251;72796;-71
2023/01/18 05:28:46;;;;;;;23.00;11.10;;;;;;;-1.52;100.00;97784.77;109574;1251;59578;-68
2023/01/18 05:31:34;;;;;;;22.00;10.70;;;;;;;-1.45;100.00;97785.38;109456;1251;60409;-68
2023/01/18 05:34:23;;;;;;;22.10;10.20;;;;;;;-1.40;100.00;97791.63;109624;1252;73739;-68
2023/01/18 05:37:10;;;;;;;21.60;9.70;;;;;;;-1.36;100.00;97793.79;109664;1252;68617;-68
2023/01/18 05:39:58;;;;;;;18.00;8.90;;;;;;;-1.34;100.00;97792.98;109612;1251;72684;-71
2023/01/18 05:42:46;;;;;;;19.50;8.90;;;;;;;-1.34;100.00;97799.45;109531;1252;59770;-70
2023/01/18 05:45:34;;;;;;;24.20;10.80;;;;;;;-1.36;100.00;97808.61;109594;1252;61662;-71
2023/01/18 05:48:23;;;;;;;19.90;9.40;;;;;;;-1.38;100.00;97808.02;109615;1252;72646;-71
2023/01/18 05:51:12;;;;;;;21.20;9.80;;;;;;;-1.38;100.00;97811.34;109483;1251;66648;-71
2023/01/18 05:54:00;;;;;;;21.20;9.40;;;;;;;-1.38;100.00;97812.02;109494;1251;74120;-74
2023/01/18 05:56:48;;;;;;;17.40;8.70;;;;;;;-1.36;100.00;97813.83;109496;1253;57395;-72
2023/01/18 05:59:36;;;;;;;14.60;6.10;;;;;;;-1.33;100.00;97819.19;109554;1252;58785;-74
2023/01/18 06:02:24;;;;;;;19.10;8.00;;;;;;;-1.34;100.00;97819.42;108729;1252;1002915;-72
2023/01/18 06:05:12;;;;;;;16.20;6.80;;;;;;;-1.35;100.00;97818.46;109480;1252;66607;-71
2023/01/18 06:08:01;;;;;;;18.20;7.50;;;;;;;-1.36;100.00;97815.90;109549;1253;71692;-72
2023/01/18 06:10:55;;;;;;;18.60;8.20;;;;;;;-1.37;100.00;97813.19;109585;1251;57296;-70
2023/01/18 06:13:43;;;;;;;21.30;9.00;;;;;;;-1.40;100.00;97813.52;109512;1252;61052;-73
2023/01/18 06:16:31;;;;;;;18.80;9.00;;;;;;;-1.43;100.00;97812.52;109548;1253;71480;-71
2023/01/18 06:19:19;;;;;;;18.90;8.60;;;;;;;-1.43;100.00;97815.64;109538;1253;68707;-74
2023/01/18 06:22:07;;;;;;;21.60;9.10;;;;;;;-1.44;100.00;97818.18;109581;1251;72353;-70
2023/01/18 06:24:55;;;;;;;19.50;9.20;;;;;;;-1.44;100.00;97821.63;109505;1252;58487;-71
2023/01/18 06:27:43;;;;;;;19.90;9.40;;;;;;;-1.46;100.00;97820.05;109550;1252;58742;-70
2023/01/18 06:30:32;;;;;;;20.20;8.30;;;;;;;-1.47;100.00;97816.10;109504;1252;72870;-70
2023/01/18 06:33:21;;;;;;;18.90;8.70;;;;;;;-1.49;100.00;97811.87;109492;1252;67882;-71
2023/01/18 06:36:09;;;;;;;16.50;7.90;;;;;;;-1.49;100.00;97812.07;109422;1252;72688;-71
2023/01/18 06:38:57;;;;;;;20.70;8.70;;;;;;;-1.49;100.00;97812.05;109486;1252;57357;-72
2023/01/18 06:41:45;;;;;;;17.90;8.50;;;;;;;-1.49;100.00;97813.77;109483;1253;58180;-71
2023/01/18 06:44:34;;;;;;;17.30;8.00;;;;;;;-1.46;100.00;97814.31;109503;1252;71944;-70
2023/01/18 06:47:22;;;;;;;19.90;8.60;;;;;;;-1.44;100.00;97813.79;109291;1254;66415;-70
2023/01/18 06:50:11;;;;;;;17.30;8.00;;;;;;;-1.38;100.00;97813.96;109165;1254;71127;-72
2023/01/18 06:52:58;;;;;;;17.90;8.20;;;;;;;-1.35;100.00;97816.03;109262;1254;58478;-70
2023/01/18 06:55:58;;;;;;;17.60;8.00;;;;;;;-1.34;100.00;97820.14;109307;1254;60537;-71
2023/01/18 06:58:46;;;;;;;16.10;7.20;;;;;;;-1.32;100.00;97825.41;109236;1254;71875;-75
2023/01/18 07:01:34;;;;;;;17.30;7.70;;;;;;;-1.29;100.00;97823.10;109334;1254;66115;-73
2023/01/18 07:04:23;;;;;;;15.90;7.40;;;;;;;-1.28;100.00;97825.31;109475;1253;73706;-72
2023/01/18 07:07:12;;;;;;;17.70;7.90;;;;;;;-1.27;100.00;97827.89;109469;1254;57375;-73
2023/01/18 07:10:00;;;;;;;17.50;8.80;;;;;;;-1.23;100.00;97825.86;109265;1254;58960;-73
2023/01/18 07:12:49;;;;;;;20.60;8.70;;;;;;;-1.23;100.00;97820.61;109511;1254;71858;-74
2023/01/18 07:15:37;;;;;;;21.50;10.10;;;;;;;-1.22;100.00;97825.63;108581;1254;1002266;-74
2023/01/18 07:18:25;;;;;;;20.60;9.70;;;;;;;-1.19;100.00;97825.59;109334;1254;72606;-72
2023/01/18 07:21:16;;;;;;;21.70;9.10;;;;;;;-1.13;100.00;97829.59;109432;1255;57305;-72
2023/01/18 07:24:05;;;;;;;18.60;9.70;;;;;;;-1.07;100.00;97834.52;109273;1253;61328;-72
2023/01/18 07:26:54;;;;;;;19.00;9.60;;;;;;;-0.99;100.00;97834.05;109419;1254;71990;-72
2023/01/18 07:29:42;;;;;;;17.80;8.60;;;;;;;-0.95;100.00;97837.30;109468;1253;68405;-73
2023/01/18 07:32:30;;;;;;;20.50;9.80;;;;;;;-0.93;100.00;97839.55;109454;1253;72700;-72
2023/01/18 07:35:23;;;;;;;20.00;9.50;;;;;;;-0.90;100.00;97850.16;109481;1253;57350;-71
2023/01/18 07:38:11;;;;;;;20.50;10.00;;;;;;;-0.87;100.00;97851.39;109465;1253;60078;-72
2023/01/18 07:41:01;;;;;;;23.90;11.50;;;;;;;-0.88;100.00;97856.84;109444;1254;72871;-74
2023/01/18 07:43:50;;;;;;;24.10;10.50;;;;;;;-0.84;100.00;97860.04;109333;1254;67785;-74
2023/01/18 07:46:38;;;;;;;24.10;10.20;;;;;;;-0.82;100.00;97864.41;108585;1251;1002976;-73
2023/01/18 07:49:27;;;;;;;19.50;9.00;;;;;;;-0.79;99.91;97860.26;109549;1254;57475;-72
2023/01/18 07:52:15;;;;;;;17.50;8.70;;;;;;;-0.74;99.86;97855.73;109626;1251;58697;-72
2023/01/18 07:55:03;;;;;;;16.50;8.10;;;;;;;-0.68;100.00;97847.84;109521;1252;73159;-72
2023/01/18 07:57:54;;;;;;;18.50;8.00;;;;;;;-0.63;99.63;97848.89;109383;1254;66916;-74
2023/01/18 08:00:42;;;;;;;20.30;9.20;;;;;;;-0.58;99.62;97850.65;109548;1253;72685;-72
2023/01/18 08:03:30;;;;;;;20.30;9.50;;;;;;;-0.52;99.68;97846.96;109537;1251;57437;-71
2023/01/18 08:06:23;;;;;;;17.80;8.00;;;;;;;-0.44;99.56;97848.36;109501;1251;60063;-72
2023/01/18 08:09:12;;;;;;;22.80;10.40;;;;;;;-0.38;99.49;97847.42;109583;1251;72887;-72
2023/01/18 08:12:01;;;;;;;17.80;9.20;;;;;;;-0.31;99.22;97843.46;109351;1251;66427;-73
2023/01/18 08:14:49;;;;;;;21.80;9.30;;;;;;;-0.25;98.84;97833.63;109567;1251;73593;-74
2023/01/18 08:17:37;;;;;;;20.90;10.20;;;;;;;-0.19;98.59;97831.97;109564;1251;58659;-73
2023/01/18 08:20:25;;;;;;;21.10;10.50;;;;;;;-0.14;98.38;97826.23;109609;1251;58731;-72
2023/01/18 08:23:15;;;;;;;20.90;10.00;;;;;;;-0.09;97.82;97818.58;109539;1251;71507;-72
2023/01/18 08:26:04;;;;;;;20.30;9.20;;;;;;;-0.07;97.33;97813.20;109605;1251;66492;-74
2023/01/18 08:28:52;;;;;;;20.60;9.60;;;;;;;-0.03;97.33;97813.27;109572;1253;72630;-76
2023/01/18 08:31:40;;;;;;;19.70;9.90;;;;;;;0.01;97.41;97808.45;109591;1254;57836;-73
2023/01/18 08:34:28;;;;;;;18.60;8.70;;;;;;;0.09;97.27;97814.88;109579;1251;60519;-73
2023/01/18 08:37:16;;;;;;;22.90;10.60;;;;;;;0.19;97.45;97816.77;109668;1251;73776;-72
2023/01/18 08:40:05;;;;;;;25.20;12.00;;;;;;;0.32;97.23;97822.85;109558;1251;67611;-72
2023/01/18 08:42:59;;;;;;;28.30;12.50;;;;;;;0.42;96.45;97821.79;109537;1251;72465;-73
2023/01/18 08:45:51;;;;;;;28.60;13.00;;;;;;;0.52;96.35;97822.30;109501;1253;57454;-73
2023/01/18 08:48:39;;;;;;;29.30;13.40;;;;;;;0.65;96.23;97825.38;109567;1252;60488;-74
2023/01/18 08:51:27;;;;;;;31.60;13.90;;;;;;;0.80;96.25;97828.29;109544;1253;71645;-73
2023/01/18 08:54:15;;;;;;;28.70;12.10;;;;;;;0.93;95.75;97833.27;109649;1251;67844;-74
2023/01/18 08:57:03;;;;;;;27.60;11.70;;;;;;;1.04;95.50;97837.02;109533;1251;72223;-72
2023/01/18 08:59:56;;;;;;;26.70;12.50;;;;;;;1.16;95.32;97836.30;109571;1252;57514;-73
2023/01/18 09:02:44;;;;;;;34.10;12.80;;;;;;;1.32;95.25;97831.29;109600;1251;59974;-73
2023/01/18 09:05:35;;;;;;;26.40;11.60;;;;;;;1.46;94.87;97837.90;109547;1253;73012;-73
2023/01/18 09:08:22;;;;;;;29.70;12.80;;;;;;;1.59;94.41;97831.83;108851;1252;1002551;-74
2023/01/18 09:11:10;;;;;;;37.50;17.60;;;;;;;1.70;93.75;97824.70;109557;1253;71102;-74
2023/01/18 09:14:00;;;;;;;35.10;17.20;;;;;;;1.83;93.22;97830.23;109550;1251;58420;-73
2023/01/18 09:16:49;;;;;;;36.80;16.70;;;;;;;1.92;92.76;97831.63;109564;1253;60209;-76
2023/01/18 09:19:37;;;;;;;35.50;17.10;;;;;;;2.01;92.48;97833.48;109583;1251;72621;-73
2023/01/18 09:22:26;;;;;;;32.50;14.90;;;;;;;2.13;91.85;97834.14;109612;1253;67602;-75
2023/01/18 09:25:14;;;;;;;34.20;14.30;;;;;;;2.27;91.75;97837.67;109556;1251;73602;-74
2023/01/18 09:28:03;;;;;;;24.60;12.90;;;;;;;2.38;91.34;97842.84;109586;1253;57787;-73
2023/01/18 09:30:52;;;;;;;32.90;16.00;;;;;;;2.47;90.27;97843.78;109565;1252;60053;-73
2023/01/18 09:33:41;;;;;;;31.30;14.90;;;;;;;2.58;90.33;97840.95;109512;1252;72126;-73
2023/01/18 09:36:40;;;;;;;35.00;15.10;;;;;;;2.73;90.08;97843.23;109597;1253;69264;-72
2023/01/18 09:39:28;;;;;;;34.00;15.30;;;;;;;3.02;89.59;97840.25;109556;1253;73508;-73
2023/01/18 09:42:33;;;;;;;39.50;17.10;;;;;;;3.16;88.60;97837.09;109545;1252;58924;-75
2023/01/18 09:45:26;;;;;;;39.40;17.20;;;;;;;3.22;88.05;97834.55;109596;1252;59952;-74
2023/01/18 09:48:38;;;;;;;32.30;14.50;;;;;;;3.28;87.84;97828.85;109592;1252;73075;-75
2023/01/18 09:51:36;;;;;;;28.20;14.10;;;;;;;3.28;86.95;97826.35;109492;1252;67927;-72
2023/01/18 09:55:05;;;;;;;24.00;10.20;;;;;;;3.30;86.65;97820.52;109531;1252;72760;-74
2023/01/18 09:58:41;;;;;;;20.10;9.20;;;;;;;3.36;86.18;97815.48;109470;1253;57899;-75
2023/01/18 10:01:34;;;;;;;17.00;7.10;;;;;;;3.43;86.01;97814.20;109581;1251;61754;-75
2023/01/18 10:04:35;;;;;;;19.60;7.00;;;;;;;3.48;85.66;97818.15;109576;1252;73174;-72
2023/01/18 10:07:29;;;;;;;17.50;7.90;;;;;;;3.59;88.49;97820.45;109481;1252;67852;-73
2023/01/18 10:10:18;;;;;;;19.30;8.20;;;;;;;3.74;87.85;97819.17;109585;1253;72731;-74
2023/01/18 10:13:47;;;;;;;20.20;7.50;;;;;;;3.87;86.76;97821.20;109563;1256;58215;-74
2023/01/18 10:16:36;;;;;;;16.60;7.00;;;;;;;3.89;85.98;97812.09;109584;1253;60214;-74
2023/01/18 10:19:31;;;;;;;19.80;8.30;;;;;;;3.89;85.56;97800.69;109507;1253;71484;-72
2023/01/18 10:22:30;;;;;;;16.20;7.00;;;;;;;3.89;85.57;97802.08;109542;1251;68594;-75
2023/01/18 10:25:41;;;;;;;15.30;6.80;;;;;;;3.88;85.18;97796.34;109613;1252;73756;-74
2023/01/18 10:29:01;;;;;;;14.70;6.60;;;;;;;3.86;85.57;97796.55;109539;1253;57290;-72
2023/01/18 10:32:14;;;;;;;11.80;5.70;;;;;;;3.91;85.41;97806.10;109564;1253;60342;-72
2023/01/18 10:35:38;;;;;;;15.20;6.70;;;;;;;3.95;85.38;97803.55;109368;1252;72847;-72
2023/01/18 10:38:29;;;;;;;15.00;6.70;;;;;;;3.93;85.27;97791.89;109495;1252;66647;-72
2023/01/18 10:41:27;;;;;;;15.20;6.90;;;;;;;3.96;85.38;97796.55;109556;1252;71132;-73
2023/01/18 10:44:15;;;;;;;12.80;6.70;;;;;;;3.94;85.19;97794.27;109435;1252;57595;-75
2023/01/18 10:47:03;;;;;;;17.60;7.80;;;;;;;3.89;85.39;97798.00;109556;1253;60178;-71
2023/01/18 10:49:58;;;;;;;13.90;6.80;;;;;;;3.86;85.35;97794.81;109557;1253;73013;-71
2023/01/18 10:52:48;;;;;;;16.00;6.60;;;;;;;3.83;85.65;97789.98;109512;1252;67614;-72
2023/01/18 10:55:36;;;;;;;15.70;6.40;;;;;;;3.80;85.92;97786.53;109534;1252;72635;-72
2023/01/18 10:58:29;;;;;;;14.80;6.80;;;;;;;3.73;85.64;97783.32;109496;1253;57380;-72
2023/01/18 11:01:24;;;;;;;14.50;8.20;;;;;;;3.60;85.94;97778.63;109522;1253;59478;-74
2023/01/18 11:04:19;;;;;;;13.90;7.30;;;;;;;3.49;86.61;97784.80;109573;1253;71671;-75
2023/01/18 11:07:08;;;;;;;14.50;7.30;;;;;;;3.39;87.00;97780.73;109548;1254;67778;-72
2023/01/18 11:10:03;;;;;;;16.40;8.70;;;;;;;3.32;87.53;97783.55;109567;1254;71408;-71
2023/01/18 11:12:51;;;;;;;16.70;7.70;;;;;;;3.23;87.78;97787.98;109587;1253;58460;-73
2023/01/18 11:15:39;;;;;;;14.80;6.80;;;;;;;3.14;88.38;97786.14;109626;1254;60367;-73
2023/01/18 11:18:27;;;;;;;17.00;8.20;;;;;;;3.07;88.55;97782.31;109586;1254;73334;-73
2023/01/18 11:21:15;;;;;;;18.40;8.60;;;;;;;3.05;89.10;97783.33;109536;1253;67661;-72
2023/01/18 11:24:14;;;;;;;21.40;9.00;;;;;;;3.06;89.19;97785.05;108686;1253;1002993;-72
2023/01/18 11:27:13;;;;;;;19.20;8.90;;;;;;;3.06;89.47;97785.73;109581;1253;57170;-72
2023/01/18 11:30:01;;;;;;;14.90;7.50;;;;;;;3.05;89.46;97784.23;109571;1251;60697;-73
2023/01/18 11:32:51;;;;;;;14.70;6.60;;;;;;;3.02;89.47;97777.67;109539;1253;71748;-73
2023/01/18 11:35:40;;;;;;;17.90;9.30;;;;;;;2.94;89.65;97779.34;109590;1253;69091;-72
2023/01/18 11:38:32;;;;;;;20.10;9.30;;;;;;;2.88;90.20;97787.20;109516;1252;71447;-73
2023/01/18 11:41:22;;;;;;;21.10;10.10;;;;;;;2.83;90.23;97789.95;109579;1252;57323;-72
2023/01/18 11:44:26;;;;;;;20.30;10.10;;;;;;;2.80;90.64;97791.77;109550;1252;61044;-72
2023/01/18 11:47:30;;;;;;;16.80;8.30;;;;;;;2.81;90.80;97789.75;109511;1253;73708;-72
2023/01/18 11:51:06;;;;;;;17.60;8.40;;;;;;;2.84;90.94;97786.81;109569;1253;67792;-73
2023/01/18 11:54:15;;;;;;;18.30;8.40;;;;;;;2.88;90.91;97791.56;109549;1253;72737;-72
2023/01/18 11:57:05;;;;;;;15.00;7.80;;;;;;;2.93;90.69;97784.02;109606;1252;57304;-72
2023/01/18 11:59:53;;;;;;;18.70;8.80;;;;;;;2.96;90.58;97783.40;109508;1253;61275;-73
2023/01/18 12:03:09;;;;;;;20.60;9.60;;;;;;;3.04;90.49;97781.73;109560;1255;71479;-72
2023/01/18 12:06:06;;;;;;;17.90;9.30;;;;;;;3.13;90.30;97779.20;109450;1254;67641;-75
2023/01/18 12:09:36;;;;;;;19.70;10.20;;;;;;;3.19;90.02;97776.41;109555;1252;71549;-72
2023/01/18 12:13:07;;;;;;;15.40;7.70;;;;;;;3.21;89.83;97776.64;109569;1253;57332;-73
2023/01/18 12:16:14;;;;;;;16.10;8.10;;;;;;;3.24;89.85;97774.59;109574;1253;58729;-71
2023/01/18 12:19:46;;;;;;;19.60;9.80;;;;;;;3.28;89.71;97776.76;109534;1254;71452;-75
2023/01/18 12:23:26;;;;;;;24.70;11.30;;;;;;;3.26;89.21;97772.89;109533;1254;68985;-72
2023/01/18 12:26:41;;;;;;;19.10;10.80;;;;;;;3.25;89.35;97774.18;109565;1252;72442;-73
2023/01/18 12:30:21;;;;;;;20.40;9.90;;;;;;;3.26;89.17;97775.52;109573;1252;58804;-73
2023/01/18 12:33:35;;;;;;;16.10;8.00;;;;;;;3.27;89.27;97775.98;109413;1253;61352;-72
2023/01/18 12:37:12;;;;;;;16.30;7.80;;;;;;;3.26;89.26;97783.06;109453;1253;73157;-72
2023/01/18 12:40:07;;;;;;;16.70;7.30;;;;;;;3.25;89.27;97782.25;109590;1253;68948;-73
2023/01/18 12:43:39;;;;;;;14.30;6.50;;;;;;;3.21;89.26;97781.35;109545;1254;70627;-71
2023/01/18 12:47:06;;;;;;;15.40;7.80;;;;;;;3.17;89.67;97783.11;109517;1253;59897;-72
2023/01/18 12:49:58;;;;;;;14.60;7.60;;;;;;;3.11;89.60;97783.73;108989;1257;60249;-74
2023/01/18 12:52:53;;;;;;;17.40;7.60;;;;;;;3.05;90.08;97792.47;108986;1257;71998;-72
2023/01/18 12:55:48;;;;;;;17.20;8.70;;;;;;;3.04;90.41;97792.71;108990;1257;66619;-75
2023/01/18 12:58:38;;;;;;;17.60;8.20;;;;;;;3.04;90.58;97788.13;109056;1257;72589;-74
2023/01/18 13:01:33;;;;;;;13.40;6.00;;;;;;;3.06;90.63;97791.17;108996;1257;57412;-73
2023/01/18 13:04:54;;;;;;;13.40;6.90;;;;;;;3.03;90.68;97788.95;109055;1257;58996;-74
2023/01/18 13:08:05;;;;;;;15.90;7.20;;;;;;;3.02;90.93;97791.48;109113;1257;73120;-73
2023/01/18 13:11:04;;;;;;;14.50;6.60;;;;;;;3.06;91.20;97801.89;109064;1257;66876;-73
2023/01/18 13:14:11;;;;;;;17.20;7.80;;;;;;;3.05;91.01;97803.81;108953;1257;73355;-73
2023/01/18 13:17:18;;;;;;;16.70;7.90;;;;;;;3.02;90.92;97802.00;109044;1257;57478;-72
2023/01/18 13:20:18;;;;;;;17.00;8.20;;;;;;;2.98;91.07;97798.45;109100;1257;58726;-72
2023/01/18 13:23:22;;;;;;;15.90;8.40;;;;;;;2.94;91.09;97795.15;109106;1257;71487;-71
2023/01/18 13:26:32;;;;;;;17.90;7.50;;;;;;;2.89;91.21;97790.96;109418;1251;66569;-73
2023/01/18 13:29:27;;;;;;;16.40;8.30;;;;;;;2.85;91.60;97789.75;109590;1253;73075;-74
2023/01/18 13:32:36;;;;;;;15.70;7.70;;;;;;;2.80;91.50;97793.66;109525;1252;57579;-73
2023/01/18 13:35:32;;;;;;;20.50;9.50;;;;;;;2.75;91.73;97793.52;109475;1253;58687;-74
2023/01/18 13:38:26;;;;;;;20.60;8.20;;;;;;;2.71;91.93;97793.17;109469;1252;71917;-72
2023/01/18 13:41:30;;;;;;;18.40;8.70;;;;;;;2.66;92.27;97791.45;109467;1252;66452;-73
2023/01/18 13:44:31;;;;;;;19.90;9.10;;;;;;;2.60;92.02;97792.98;109518;1252;72406;-73
2023/01/18 13:47:34;;;;;;;20.10;9.00;;;;;;;2.54;92.66;97793.46;109603;1252;58593;-73
2023/01/18 13:50:31;;;;;;;19.70;9.20;;;;;;;2.48;92.71;97790.95;109581;1254;61072;-72